sensor_id;sensor_type;location;lat;lon;timestamp;P1;durP1;ratioP1;P2;durP2;ratioP2
8007;SDS011;4049;49.468;11.200;2023-08-24T00:00:49;5.40;;;4.90;;
8007;SDS011;4049;49.468;11.200;2023-08-24T00:03:16;6.13;;;4.70;;
8007;SDS011;4049;49.468;11.200;2023-08-24T00:05:43;4.77;;;4.37;;
8007;SDS011;4049;49.468;11.200;2023-08-24T00:08:11;4.60;;;4.20;;
8007;SDS011;4049;49.468;11.200;2023-08-24T00:10:38;6.70;;;4.90;;
8007;SDS011;4049;49.468;11.200;2023-08-24T00:13:05;5.20;;;4.70;;
8007;SDS011;4049;49.468;11.200;2023-08-24T00:15:32;8.30;;;4.67;;
8007;SDS011;4049;49.468;11.200;2023-08-24T00:18:00;4.57;;;4.17;;
8007;SDS011;4049;49.468;11.200;2023-08-24T00:20:27;6.57;;;4.20;;
8007;SDS011;4049;49.468;11.200;2023-08-24T00:22:54;6.27;;;5.30;;
8007;SDS011;4049;49.468;11.200;2023-08-24T00:25:22;5.47;;;4.70;;
8007;SDS011;4049;49.468;11.200;2023-08-24T00:27:50;9.50;;;4.53;;
8007;SDS011;4049;49.468;11.200;2023-08-24T00:30:18;5.67;;;4.60;;
8007;SDS011;4049;49.468;11.200;2023-08-24T00:32:45;5.03;;;4.43;;
8007;SDS011;4049;49.468;11.200;2023-08-24T00:35:11;5.03;;;4.53;;
8007;SDS011;4049;49.468;11.200;2023-08-24T00:37:38;6.50;;;4.77;;
8007;SDS011;4049;49.468;11.200;2023-08-24T00:40:06;5.40;;;4.53;;
8007;SDS011;4049;49.468;11.200;2023-08-24T00:42:38;5.93;;;4.43;;
8007;SDS011;4049;49.468;11.200;2023-08-24T00:45:06;6.47;;;5.10;;
8007;SDS011;4049;49.468;11.200;2023-08-24T00:47:34;5.63;;;4.87;;
8007;SDS011;4049;49.468;11.200;2023-08-24T00:50:02;6.40;;;4.83;;
8007;SDS011;4049;49.468;11.200;2023-08-24T00:52:30;5.07;;;4.57;;
8007;SDS011;4049;49.468;11.200;2023-08-24T00:54:58;6.13;;;4.90;;
8007;SDS011;4049;49.468;11.200;2023-08-24T00:57:26;5.70;;;5.10;;
8007;SDS011;4049;49.468;11.200;2023-08-24T00:59:55;6.30;;;4.80;;
8007;SDS011;4049;49.468;11.200;2023-08-24T01:02:23;5.90;;;4.70;;
8007;SDS011;4049;49.468;11.200;2023-08-24T01:04:50;5.97;;;5.33;;
8007;SDS011;4049;49.468;11.200;2023-08-24T01:07:16;5.17;;;4.50;;
8007;SDS011;4049;49.468;11.200;2023-08-24T01:09:44;6.70;;;5.00;;
8007;SDS011;4049;49.468;11.200;2023-08-24T01:12:13;5.70;;;5.10;;
8007;SDS011;4049;49.468;11.200;2023-08-24T01:14:50;6.23;;;5.07;;
8007;SDS011;4049;49.468;11.200;2023-08-24T01:17:26;5.97;;;4.97;;
8007;SDS011;4049;49.468;11.200;2023-08-24T01:19:54;6.63;;;5.53;;
8007;SDS011;4049;49.468;11.200;2023-08-24T01:22:31;8.27;;;6.00;;
8007;SDS011;4049;49.468;11.200;2023-08-24T01:25:03;7.93;;;5.90;;
8007;SDS011;4049;49.468;11.200;2023-08-24T01:27:35;5.80;;;5.20;;
8007;SDS011;4049;49.468;11.200;2023-08-24T01:30:02;6.37;;;5.77;;
8007;SDS011;4049;49.468;11.200;2023-08-24T01:32:30;5.73;;;5.10;;
8007;SDS011;4049;49.468;11.200;2023-08-24T01:34:58;6.33;;;5.73;;
8007;SDS011;4049;49.468;11.200;2023-08-24T01:37:25;6.23;;;5.23;;
8007;SDS011;4049;49.468;11.200;2023-08-24T01:39:54;6.67;;;5.13;;
8007;SDS011;4049;49.468;11.200;2023-08-24T01:42:31;6.13;;;5.13;;
8007;SDS011;4049;49.468;11.200;2023-08-24T01:45:03;6.13;;;5.00;;
8007;SDS011;4049;49.468;11.200;2023-08-24T01:47:32;5.77;;;5.20;;
8007;SDS011;4049;49.468;11.200;2023-08-24T01:50:00;5.23;;;4.73;;
8007;SDS011;4049;49.468;11.200;2023-08-24T01:52:28;6.60;;;4.90;;
8007;SDS011;4049;49.468;11.200;2023-08-24T01:54:56;5.87;;;5.27;;
8007;SDS011;4049;49.468;11.200;2023-08-24T01:57:23;5.40;;;4.63;;
8007;SDS011;4049;49.468;11.200;2023-08-24T01:59:49;6.63;;;5.43;;
8007;SDS011;4049;49.468;11.200;2023-08-24T02:02:17;5.77;;;5.20;;
8007;SDS011;4049;49.468;11.200;2023-08-24T02:04:44;5.70;;;5.10;;
8007;SDS011;4049;49.468;11.200;2023-08-24T02:07:11;6.83;;;5.30;;
8007;SDS011;4049;49.468;11.200;2023-08-24T02:09:38;6.17;;;4.90;;
8007;SDS011;4049;49.468;11.200;2023-08-24T02:12:05;5.27;;;4.77;;
8007;SDS011;4049;49.468;11.200;2023-08-24T02:14:32;5.20;;;4.70;;
8007;SDS011;4049;49.468;11.200;2023-08-24T02:16:58;5.33;;;4.83;;
8007;SDS011;4049;49.468;11.200;2023-08-24T02:19:26;5.40;;;4.60;;
8007;SDS011;4049;49.468;11.200;2023-08-24T02:21:54;8.27;;;5.00;;
8007;SDS011;4049;49.468;11.200;2023-08-24T02:24:20;6.13;;;4.90;;
8007;SDS011;4049;49.468;11.200;2023-08-24T02:26:47;6.80;;;4.93;;
8007;SDS011;4049;49.468;11.200;2023-08-24T02:29:14;5.00;;;4.50;;
8007;SDS011;4049;49.468;11.200;2023-08-24T02:31:41;7.70;;;4.60;;
8007;SDS011;4049;49.468;11.200;2023-08-24T02:34:08;5.47;;;4.90;;
8007;SDS011;4049;49.468;11.200;2023-08-24T02:36:36;6.57;;;4.90;;
8007;SDS011;4049;49.468;11.200;2023-08-24T02:39:03;10.27;;;5.80;;
8007;SDS011;4049;49.468;11.200;2023-08-24T02:41:31;6.73;;;5.07;;
8007;SDS011;4049;49.468;11.200;2023-08-24T02:43:57;5.90;;;4.90;;
8007;SDS011;4049;49.468;11.200;2023-08-24T02:46:24;5.60;;;5.00;;
8007;SDS011;4049;49.468;11.200;2023-08-24T02:48:51;8.07;;;4.90;;
8007;SDS011;4049;49.468;11.200;2023-08-24T02:51:20;6.13;;;4.90;;
8007;SDS011;4049;49.468;11.200;2023-08-24T02:53:49;5.20;;;4.70;;
8007;SDS011;4049;49.468;11.200;2023-08-24T02:56:16;5.40;;;4.57;;
8007;SDS011;4049;49.468;11.200;2023-08-24T02:58:43;4.93;;;4.47;;
8007;SDS011;4049;49.468;11.200;2023-08-24T03:01:10;5.47;;;4.87;;
8007;SDS011;4049;49.468;11.200;2023-08-24T03:03:37;5.80;;;5.07;;
8007;SDS011;4049;49.468;11.200;2023-08-24T03:06:04;5.30;;;4.60;;
8007;SDS011;4049;49.468;11.200;2023-08-24T03:08:33;7.00;;;5.10;;
8007;SDS011;4049;49.468;11.200;2023-08-24T03:11:02;5.80;;;5.30;;
8007;SDS011;4049;49.468;11.200;2023-08-24T03:13:29;5.60;;;4.93;;
8007;SDS011;4049;49.468;11.200;2023-08-24T03:15:57;5.67;;;5.00;;
8007;SDS011;4049;49.468;11.200;2023-08-24T03:18:28;5.50;;;5.00;;
8007;SDS011;4049;49.468;11.200;2023-08-24T03:20:55;5.77;;;5.13;;
8007;SDS011;4049;49.468;11.200;2023-08-24T03:23:22;5.67;;;5.00;;
8007;SDS011;4049;49.468;11.200;2023-08-24T03:25:49;7.03;;;5.10;;
8007;SDS011;4049;49.468;11.200;2023-08-24T03:28:17;5.77;;;5.17;;
8007;SDS011;4049;49.468;11.200;2023-08-24T03:30:48;5.57;;;5.00;;
8007;SDS011;4049;49.468;11.200;2023-08-24T03:33:17;5.57;;;5.07;;
8007;SDS011;4049;49.468;11.200;2023-08-24T03:35:44;6.57;;;5.50;;
8007;SDS011;4049;49.468;11.200;2023-08-24T03:38:11;7.47;;;5.53;;
8007;SDS011;4049;49.468;11.200;2023-08-24T03:40:38;5.13;;;4.70;;
8007;SDS011;4049;49.468;11.200;2023-08-24T03:43:05;5.67;;;5.03;;
8007;SDS011;4049;49.468;11.200;2023-08-24T03:45:33;6.33;;;5.10;;
8007;SDS011;4049;49.468;11.200;2023-08-24T03:48:00;6.30;;;5.47;;
8007;SDS011;4049;49.468;11.200;2023-08-24T03:50:27;5.40;;;4.90;;
8007;SDS011;4049;49.468;11.200;2023-08-24T03:52:53;6.20;;;5.33;;
8007;SDS011;4049;49.468;11.200;2023-08-24T03:55:20;7.50;;;5.43;;
8007;SDS011;4049;49.468;11.200;2023-08-24T03:57:48;5.23;;;4.73;;
8007;SDS011;4049;49.468;11.200;2023-08-24T04:00:14;6.33;;;5.00;;
8007;SDS011;4049;49.468;11.200;2023-08-24T04:02:44;6.43;;;5.03;;
8007;SDS011;4049;49.468;11.200;2023-08-24T04:05:10;4.90;;;4.47;;
8007;SDS011;4049;49.468;11.200;2023-08-24T04:07:37;6.50;;;5.13;;
8007;SDS011;4049;49.468;11.200;2023-08-24T04:10:06;8.57;;;5.30;;
8007;SDS011;4049;49.468;11.200;2023-08-24T04:12:33;6.23;;;4.73;;
8007;SDS011;4049;49.468;11.200;2023-08-24T04:15:00;6.23;;;4.83;;
8007;SDS011;4049;49.468;11.200;2023-08-24T04:17:27;5.50;;;4.90;;
8007;SDS011;4049;49.468;11.200;2023-08-24T04:19:56;5.73;;;4.50;;
8007;SDS011;4049;49.468;11.200;2023-08-24T04:22:22;5.23;;;4.73;;
8007;SDS011;4049;49.468;11.200;2023-08-24T04:24:49;5.57;;;4.50;;
8007;SDS011;4049;49.468;11.200;2023-08-24T04:27:16;5.30;;;4.80;;
8007;SDS011;4049;49.468;11.200;2023-08-24T04:29:43;6.37;;;4.73;;
8007;SDS011;4049;49.468;11.200;2023-08-24T04:32:10;7.67;;;5.30;;
8007;SDS011;4049;49.468;11.200;2023-08-24T04:34:36;9.13;;;5.10;;
8007;SDS011;4049;49.468;11.200;2023-08-24T04:37:05;5.80;;;4.90;;
8007;SDS011;4049;49.468;11.200;2023-08-24T04:39:32;5.63;;;4.70;;
8007;SDS011;4049;49.468;11.200;2023-08-24T04:41:59;5.50;;;4.73;;
8007;SDS011;4049;49.468;11.200;2023-08-24T04:44:25;5.77;;;4.93;;
8007;SDS011;4049;49.468;11.200;2023-08-24T04:46:52;5.67;;;5.10;;
8007;SDS011;4049;49.468;11.200;2023-08-24T04:49:19;7.80;;;4.97;;
8007;SDS011;4049;49.468;11.200;2023-08-24T04:51:46;5.10;;;4.60;;
8007;SDS011;4049;49.468;11.200;2023-08-24T04:54:14;5.03;;;4.53;;
8007;SDS011;4049;49.468;11.200;2023-08-24T04:56:41;5.30;;;4.80;;
8007;SDS011;4049;49.468;11.200;2023-08-24T04:59:08;5.93;;;5.00;;
8007;SDS011;4049;49.468;11.200;2023-08-24T05:01:35;5.17;;;4.60;;
8007;SDS011;4049;49.468;11.200;2023-08-24T05:04:03;5.80;;;4.53;;
8007;SDS011;4049;49.468;11.200;2023-08-24T05:06:30;6.10;;;4.87;;
8007;SDS011;4049;49.468;11.200;2023-08-24T05:08:56;7.77;;;4.67;;
8007;SDS011;4049;49.468;11.200;2023-08-24T05:11:27;5.93;;;5.27;;
8007;SDS011;4049;49.468;11.200;2023-08-24T05:13:55;6.50;;;5.47;;
8007;SDS011;4049;49.468;11.200;2023-08-24T05:16:22;6.97;;;5.20;;
8007;SDS011;4049;49.468;11.200;2023-08-24T05:18:49;6.23;;;5.63;;
8007;SDS011;4049;49.468;11.200;2023-08-24T05:21:16;5.93;;;5.33;;
8007;SDS011;4049;49.468;11.200;2023-08-24T05:23:43;7.23;;;5.20;;
8007;SDS011;4049;49.468;11.200;2023-08-24T05:26:09;6.97;;;5.63;;
8007;SDS011;4049;49.468;11.200;2023-08-24T05:28:38;6.20;;;5.60;;
8007;SDS011;4049;49.468;11.200;2023-08-24T05:31:04;6.40;;;5.63;;
8007;SDS011;4049;49.468;11.200;2023-08-24T05:33:31;9.03;;;5.60;;
8007;SDS011;4049;49.468;11.200;2023-08-24T05:35:58;7.87;;;5.43;;
8007;SDS011;4049;49.468;11.200;2023-08-24T05:38:25;11.93;;;5.77;;
8007;SDS011;4049;49.468;11.200;2023-08-24T05:40:52;8.73;;;5.90;;
8007;SDS011;4049;49.468;11.200;2023-08-24T05:43:18;6.70;;;5.50;;
8007;SDS011;4049;49.468;11.200;2023-08-24T05:45:47;8.60;;;5.53;;
8007;SDS011;4049;49.468;11.200;2023-08-24T05:48:14;7.37;;;5.90;;
8007;SDS011;4049;49.468;11.200;2023-08-24T05:50:44;8.47;;;5.00;;
8007;SDS011;4049;49.468;11.200;2023-08-24T05:53:12;8.07;;;5.27;;
8007;SDS011;4049;49.468;11.200;2023-08-24T05:55:39;7.10;;;5.63;;
8007;SDS011;4049;49.468;11.200;2023-08-24T05:58:06;8.03;;;5.03;;
8007;SDS011;4049;49.468;11.200;2023-08-24T06:00:33;7.50;;;5.53;;
8007;SDS011;4049;49.468;11.200;2023-08-24T06:03:01;6.87;;;5.73;;
8007;SDS011;4049;49.468;11.200;2023-08-24T06:05:29;6.90;;;6.23;;
8007;SDS011;4049;49.468;11.200;2023-08-24T06:07:56;6.80;;;5.67;;
8007;SDS011;4049;49.468;11.200;2023-08-24T06:10:23;7.30;;;5.30;;
8007;SDS011;4049;49.468;11.200;2023-08-24T06:12:51;8.97;;;6.27;;
8007;SDS011;4049;49.468;11.200;2023-08-24T06:15:18;7.33;;;6.20;;
8007;SDS011;4049;49.468;11.200;2023-08-24T06:17:48;10.27;;;6.23;;
8007;SDS011;4049;49.468;11.200;2023-08-24T06:20:17;6.73;;;5.33;;
8007;SDS011;4049;49.468;11.200;2023-08-24T06:22:45;6.17;;;5.47;;
8007;SDS011;4049;49.468;11.200;2023-08-24T06:25:12;8.80;;;5.70;;
8007;SDS011;4049;49.468;11.200;2023-08-24T06:27:39;9.23;;;5.37;;
8007;SDS011;4049;49.468;11.200;2023-08-24T06:30:06;6.80;;;5.10;;
8007;SDS011;4049;49.468;11.200;2023-08-24T06:32:33;7.73;;;5.10;;
8007;SDS011;4049;49.468;11.200;2023-08-24T06:35:02;11.23;;;5.30;;
8007;SDS011;4049;49.468;11.200;2023-08-24T06:37:30;7.17;;;4.93;;
8007;SDS011;4049;49.468;11.200;2023-08-24T06:39:57;7.60;;;5.03;;
8007;SDS011;4049;49.468;11.200;2023-08-24T06:42:23;6.57;;;5.00;;
8007;SDS011;4049;49.468;11.200;2023-08-24T06:44:50;5.93;;;4.47;;
8007;SDS011;4049;49.468;11.200;2023-08-24T06:47:17;7.07;;;4.60;;
8007;SDS011;4049;49.468;11.200;2023-08-24T06:49:44;6.97;;;5.07;;
8007;SDS011;4049;49.468;11.200;2023-08-24T06:52:11;7.37;;;4.63;;
8007;SDS011;4049;49.468;11.200;2023-08-24T06:54:39;5.83;;;4.40;;
8007;SDS011;4049;49.468;11.200;2023-08-24T06:57:06;7.93;;;4.77;;
8007;SDS011;4049;49.468;11.200;2023-08-24T06:59:33;5.40;;;4.40;;
8007;SDS011;4049;49.468;11.200;2023-08-24T07:02:00;8.97;;;4.53;;
8007;SDS011;4049;49.468;11.200;2023-08-24T07:04:29;7.27;;;5.00;;
8007;SDS011;4049;49.468;11.200;2023-08-24T07:06:56;5.87;;;4.83;;
8007;SDS011;4049;49.468;11.200;2023-08-24T07:09:23;8.17;;;5.10;;
8007;SDS011;4049;49.468;11.200;2023-08-24T07:11:51;5.73;;;4.87;;
8007;SDS011;4049;49.468;11.200;2023-08-24T07:14:18;6.67;;;4.80;;
8007;SDS011;4049;49.468;11.200;2023-08-24T07:16:45;4.50;;;4.10;;
8007;SDS011;4049;49.468;11.200;2023-08-24T07:19:12;4.77;;;4.20;;
8007;SDS011;4049;49.468;11.200;2023-08-24T07:21:39;4.10;;;3.70;;
8007;SDS011;4049;49.468;11.200;2023-08-24T07:24:05;6.53;;;4.77;;
8007;SDS011;4049;49.468;11.200;2023-08-24T07:26:33;5.43;;;4.63;;
8007;SDS011;4049;49.468;11.200;2023-08-24T07:29:01;9.33;;;5.13;;
8007;SDS011;4049;49.468;11.200;2023-08-24T07:31:28;5.40;;;4.43;;
8007;SDS011;4049;49.468;11.200;2023-08-24T07:33:55;5.70;;;4.67;;
8007;SDS011;4049;49.468;11.200;2023-08-24T07:36:22;7.23;;;4.70;;
8007;SDS011;4049;49.468;11.200;2023-08-24T07:38:48;5.87;;;4.40;;
8007;SDS011;4049;49.468;11.200;2023-08-24T07:41:15;5.30;;;4.80;;
8007;SDS011;4049;49.468;11.200;2023-08-24T07:43:43;6.57;;;5.60;;
8007;SDS011;4049;49.468;11.200;2023-08-24T07:46:12;6.17;;;4.60;;
8007;SDS011;4049;49.468;11.200;2023-08-24T07:48:38;5.10;;;4.60;;
8007;SDS011;4049;49.468;11.200;2023-08-24T07:51:06;6.03;;;4.83;;
8007;SDS011;4049;49.468;11.200;2023-08-24T07:53:34;5.07;;;4.50;;
8007;SDS011;4049;49.468;11.200;2023-08-24T07:56:00;7.33;;;5.27;;
8007;SDS011;4049;49.468;11.200;2023-08-24T07:58:28;4.90;;;4.30;;
8007;SDS011;4049;49.468;11.200;2023-08-24T08:00:56;5.57;;;4.73;;
8007;SDS011;4049;49.468;11.200;2023-08-24T08:03:24;7.77;;;5.10;;
8007;SDS011;4049;49.468;11.200;2023-08-24T08:05:52;5.37;;;4.27;;
8007;SDS011;4049;49.468;11.200;2023-08-24T08:08:19;4.80;;;4.33;;
8007;SDS011;4049;49.468;11.200;2023-08-24T08:10:46;5.17;;;4.17;;
8007;SDS011;4049;49.468;11.200;2023-08-24T08:13:13;4.63;;;4.20;;
8007;SDS011;4049;49.468;11.200;2023-08-24T08:15:40;4.90;;;4.13;;
8007;SDS011;4049;49.468;11.200;2023-08-24T08:18:07;5.20;;;4.70;;
8007;SDS011;4049;49.468;11.200;2023-08-24T08:20:35;6.87;;;4.73;;
8007;SDS011;4049;49.468;11.200;2023-08-24T08:23:02;6.85;;;4.85;;
8007;SDS011;4049;49.468;11.200;2023-08-24T08:25:29;6.32;;;4.57;;
8007;SDS011;4049;49.468;11.200;2023-08-24T08:27:56;5.25;;;4.75;;
8007;SDS011;4049;49.468;11.200;2023-08-24T08:30:23;4.43;;;4.00;;
8007;SDS011;4049;49.468;11.200;2023-08-24T08:32:50;4.97;;;4.30;;
8007;SDS011;4049;49.468;11.200;2023-08-24T08:35:17;6.43;;;4.70;;
8007;SDS011;4049;49.468;11.200;2023-08-24T08:37:45;5.15;;;4.43;;
8007;SDS011;4049;49.468;11.200;2023-08-24T08:40:14;4.70;;;4.25;;
8007;SDS011;4049;49.468;11.200;2023-08-24T08:42:41;5.32;;;4.82;;
8007;SDS011;4049;49.468;11.200;2023-08-24T08:45:09;4.63;;;4.18;;
8007;SDS011;4049;49.468;11.200;2023-08-24T08:47:36;4.55;;;4.15;;
8007;SDS011;4049;49.468;11.200;2023-08-24T08:50:06;5.20;;;4.45;;
8007;SDS011;4049;49.468;11.200;2023-08-24T08:52:34;5.00;;;4.50;;
8007;SDS011;4049;49.468;11.200;2023-08-24T08:55:02;5.30;;;4.15;;
8007;SDS011;4049;49.468;11.200;2023-08-24T08:57:31;4.68;;;4.00;;
8007;SDS011;4049;49.468;11.200;2023-08-24T08:59:59;5.38;;;4.18;;
8007;SDS011;4049;49.468;11.200;2023-08-24T15:01:48;5.05;;;3.75;;
8007;SDS011;4049;49.468;11.200;2023-08-24T15:04:15;4.85;;;3.50;;
8007;SDS011;4049;49.468;11.200;2023-08-24T15:06:41;5.55;;;3.83;;
8007;SDS011;4049;49.468;11.200;2023-08-24T15:09:08;4.28;;;3.45;;
8007;SDS011;4049;49.468;11.200;2023-08-24T15:11:36;5.15;;;3.70;;
8007;SDS011;4049;49.468;11.200;2023-08-24T15:14:03;5.70;;;3.53;;
8007;SDS011;4049;49.468;11.200;2023-08-24T15:16:29;3.80;;;3.35;;
8007;SDS011;4049;49.468;11.200;2023-08-24T15:18:58;5.13;;;3.35;;
8007;SDS011;4049;49.468;11.200;2023-08-24T15:21:24;4.78;;;3.60;;
8007;SDS011;4049;49.468;11.200;2023-08-24T15:23:53;7.07;;;4.07;;
8007;SDS011;4049;49.468;11.200;2023-08-24T15:26:20;4.72;;;3.53;;
8007;SDS011;4049;49.468;11.200;2023-08-24T15:31:35;4.35;;;3.22;;
8007;SDS011;4049;49.468;11.200;2023-08-24T15:34:04;4.05;;;3.35;;
8007;SDS011;4049;49.468;11.200;2023-08-24T15:36:31;3.90;;;3.50;;
8007;SDS011;4049;49.468;11.200;2023-08-24T15:38:58;5.78;;;3.90;;
8007;SDS011;4049;49.468;11.200;2023-08-24T15:41:25;5.75;;;3.70;;
8007;SDS011;4049;49.468;11.200;2023-08-24T15:43:52;3.97;;;3.28;;
8007;SDS011;4049;49.468;11.200;2023-08-24T15:46:18;5.15;;;4.55;;
8007;SDS011;4049;49.468;11.200;2023-08-24T15:48:45;8.27;;;6.57;;
8007;SDS011;4049;49.468;11.200;2023-08-24T15:51:13;17.08;;;12.07;;
8007;SDS011;4049;49.468;11.200;2023-08-24T15:53:40;7.43;;;5.45;;
8007;SDS011;4049;49.468;11.200;2023-08-24T15:56:07;6.78;;;4.38;;
8007;SDS011;4049;49.468;11.200;2023-08-24T15:58:34;5.25;;;3.78;;
8007;SDS011;4049;49.468;11.200;2023-08-24T16:01:03;6.57;;;3.92;;
8007;SDS011;4049;49.468;11.200;2023-08-24T16:03:30;4.20;;;3.47;;
8007;SDS011;4049;49.468;11.200;2023-08-24T16:05:56;5.85;;;3.83;;
8007;SDS011;4049;49.468;11.200;2023-08-24T16:08:25;4.10;;;3.45;;
8007;SDS011;4049;49.468;11.200;2023-08-24T16:10:54;5.00;;;3.60;;
8007;SDS011;4049;49.468;11.200;2023-08-24T16:13:22;3.85;;;3.10;;
8007;SDS011;4049;49.468;11.200;2023-08-24T16:15:49;4.28;;;3.60;;
8007;SDS011;4049;49.468;11.200;2023-08-24T16:18:17;4.35;;;3.45;;
8007;SDS011;4049;49.468;11.200;2023-08-24T16:20:48;4.57;;;3.72;;
8007;SDS011;4049;49.468;11.200;2023-08-24T16:23:15;4.05;;;3.63;;
8007;SDS011;4049;49.468;11.200;2023-08-24T16:25:44;6.50;;;4.05;;
8007;SDS011;4049;49.468;11.200;2023-08-24T16:28:11;5.15;;;3.45;;
8007;SDS011;4049;49.468;11.200;2023-08-24T16:30:38;5.63;;;3.33;;
8007;SDS011;4049;49.468;11.200;2023-08-24T16:33:05;5.47;;;3.47;;
8007;SDS011;4049;49.468;11.200;2023-08-24T16:35:32;4.13;;;3.53;;
8007;SDS011;4049;49.468;11.200;2023-08-24T16:37:58;7.78;;;4.60;;
8007;SDS011;4049;49.468;11.200;2023-08-24T16:40:25;6.57;;;4.45;;
8007;SDS011;4049;49.468;11.200;2023-08-24T16:42:53;5.38;;;3.78;;
8007;SDS011;4049;49.468;11.200;2023-08-24T16:45:20;4.68;;;3.80;;
8007;SDS011;4049;49.468;11.200;2023-08-24T16:47:48;6.10;;;4.00;;
8007;SDS011;4049;49.468;11.200;2023-08-24T16:50:15;4.35;;;3.38;;
8007;SDS011;4049;49.468;11.200;2023-08-24T16:52:42;4.60;;;3.88;;
8007;SDS011;4049;49.468;11.200;2023-08-24T16:55:09;5.28;;;3.80;;
8007;SDS011;4049;49.468;11.200;2023-08-24T16:57:36;6.82;;;3.97;;
8007;SDS011;4049;49.468;11.200;2023-08-24T17:00:05;5.65;;;3.75;;
8007;SDS011;4049;49.468;11.200;2023-08-24T17:02:32;5.70;;;3.33;;
8007;SDS011;4049;49.468;11.200;2023-08-24T17:05:00;5.97;;;3.88;;
8007;SDS011;4049;49.468;11.200;2023-08-24T17:07:28;7.57;;;4.30;;
8007;SDS011;4049;49.468;11.200;2023-08-24T17:09:55;5.50;;;3.65;;
8007;SDS011;4049;49.468;11.200;2023-08-24T17:12:22;6.40;;;4.07;;
8007;SDS011;4049;49.468;11.200;2023-08-24T17:14:48;4.65;;;3.70;;
8007;SDS011;4049;49.468;11.200;2023-08-24T17:17:17;6.13;;;4.50;;
8007;SDS011;4049;49.468;11.200;2023-08-24T17:19:44;5.43;;;4.07;;
8007;SDS011;4049;49.468;11.200;2023-08-24T17:22:11;4.68;;;4.20;;
8007;SDS011;4049;49.468;11.200;2023-08-24T17:24:38;5.28;;;4.13;;
8007;SDS011;4049;49.468;11.200;2023-08-24T17:27:05;7.32;;;4.10;;
8007;SDS011;4049;49.468;11.200;2023-08-24T17:29:32;6.43;;;4.38;;
8007;SDS011;4049;49.468;11.200;2023-08-24T17:31:59;7.40;;;4.50;;
8007;SDS011;4049;49.468;11.200;2023-08-24T17:34:27;5.30;;;4.32;;
8007;SDS011;4049;49.468;11.200;2023-08-24T17:36:54;9.45;;;4.32;;
8007;SDS011;4049;49.468;11.200;2023-08-24T17:39:21;7.85;;;4.50;;
8007;SDS011;4049;49.468;11.200;2023-08-24T17:41:48;5.93;;;4.40;;
8007;SDS011;4049;49.468;11.200;2023-08-24T17:44:15;5.72;;;5.10;;
8007;SDS011;4049;49.468;11.200;2023-08-24T17:46:41;8.05;;;5.63;;
8007;SDS011;4049;49.468;11.200;2023-08-24T17:49:08;7.72;;;5.50;;
8007;SDS011;4049;49.468;11.200;2023-08-24T17:51:37;8.27;;;5.30;;
8007;SDS011;4049;49.468;11.200;2023-08-24T17:54:04;6.45;;;5.70;;
8007;SDS011;4049;49.468;11.200;2023-08-24T17:56:31;6.53;;;5.32;;
8007;SDS011;4049;49.468;11.200;2023-08-24T17:58:59;10.35;;;6.03;;
8007;SDS011;4049;49.468;11.200;2023-08-24T18:01:26;8.70;;;5.53;;
8007;SDS011;4049;49.468;11.200;2023-08-24T18:03:52;10.23;;;5.57;;
8007;SDS011;4049;49.468;11.200;2023-08-24T18:06:19;7.55;;;5.60;;
8007;SDS011;4049;49.468;11.200;2023-08-24T18:08:48;6.00;;;5.45;;
8007;SDS011;4049;49.468;11.200;2023-08-24T18:11:16;6.07;;;5.47;;
8007;SDS011;4049;49.468;11.200;2023-08-24T18:13:43;7.40;;;6.18;;
8007;SDS011;4049;49.468;11.200;2023-08-24T18:16:12;8.55;;;6.00;;
8007;SDS011;4049;49.468;11.200;2023-08-24T18:18:39;8.43;;;5.93;;
8007;SDS011;4049;49.468;11.200;2023-08-24T18:21:06;6.50;;;5.68;;
8007;SDS011;4049;49.468;11.200;2023-08-24T18:23:35;9.15;;;5.82;;
8007;SDS011;4049;49.468;11.200;2023-08-24T18:26:03;6.28;;;5.47;;
8007;SDS011;4049;49.468;11.200;2023-08-24T18:28:31;7.18;;;5.45;;
8007;SDS011;4049;49.468;11.200;2023-08-24T18:30:57;6.25;;;5.13;;
8007;SDS011;4049;49.468;11.200;2023-08-24T18:33:25;9.77;;;5.63;;
8007;SDS011;4049;49.468;11.200;2023-08-24T18:35:52;6.00;;;5.38;;
8007;SDS011;4049;49.468;11.200;2023-08-24T18:38:20;9.98;;;5.85;;
8007;SDS011;4049;49.468;11.200;2023-08-24T18:40:50;6.18;;;5.55;;
8007;SDS011;4049;49.468;11.200;2023-08-24T18:43:18;7.38;;;5.63;;
8007;SDS011;4049;49.468;11.200;2023-08-24T18:45:52;8.73;;;5.50;;
8007;SDS011;4049;49.468;11.200;2023-08-24T18:48:19;7.07;;;5.70;;
8007;SDS011;4049;49.468;11.200;2023-08-24T18:50:46;6.40;;;5.80;;
8007;SDS011;4049;49.468;11.200;2023-08-24T18:53:13;6.97;;;5.55;;
8007;SDS011;4049;49.468;11.200;2023-08-24T18:55:40;8.85;;;5.43;;
8007;SDS011;4049;49.468;11.200;2023-08-24T18:58:07;9.18;;;5.95;;
8007;SDS011;4049;49.468;11.200;2023-08-24T19:00:35;8.02;;;6.10;;
8007;SDS011;4049;49.468;11.200;2023-08-24T19:03:02;7.93;;;6.03;;
8007;SDS011;4049;49.468;11.200;2023-08-24T19:05:29;5.85;;;5.35;;
8007;SDS011;4049;49.468;11.200;2023-08-24T19:07:57;7.72;;;5.20;;
8007;SDS011;4049;49.468;11.200;2023-08-24T19:10:24;6.15;;;5.30;;
8007;SDS011;4049;49.468;11.200;2023-08-24T19:12:51;7.20;;;5.28;;
8007;SDS011;4049;49.468;11.200;2023-08-24T19:15:19;7.80;;;5.28;;
8007;SDS011;4049;49.468;11.200;2023-08-24T19:17:47;6.60;;;5.65;;
8007;SDS011;4049;49.468;11.200;2023-08-24T19:20:14;6.13;;;5.15;;
8007;SDS011;4049;49.468;11.200;2023-08-24T19:22:41;7.25;;;5.32;;
8007;SDS011;4049;49.468;11.200;2023-08-24T19:25:08;7.13;;;5.38;;
8007;SDS011;4049;49.468;11.200;2023-08-24T19:27:35;5.90;;;5.30;;
8007;SDS011;4049;49.468;11.200;2023-08-24T19:30:02;7.82;;;5.55;;
8007;SDS011;4049;49.468;11.200;2023-08-24T19:32:29;9.10;;;5.40;;
8007;SDS011;4049;49.468;11.200;2023-08-24T19:34:57;5.75;;;5.13;;
8007;SDS011;4049;49.468;11.200;2023-08-24T19:37:24;5.63;;;5.03;;
8007;SDS011;4049;49.468;11.200;2023-08-24T19:39:51;6.82;;;6.03;;
8007;SDS011;4049;49.468;11.200;2023-08-24T19:42:18;7.65;;;5.90;;
8007;SDS011;4049;49.468;11.200;2023-08-24T19:44:45;10.15;;;5.45;;
8007;SDS011;4049;49.468;11.200;2023-08-24T19:47:12;6.50;;;5.25;;
8007;SDS011;4049;49.468;11.200;2023-08-24T19:49:39;8.27;;;5.22;;
8007;SDS011;4049;49.468;11.200;2023-08-24T19:52:07;6.40;;;5.03;;
8007;SDS011;4049;49.468;11.200;2023-08-24T19:54:34;7.50;;;4.80;;
8007;SDS011;4049;49.468;11.200;2023-08-24T19:57:03;6.03;;;4.60;;
8007;SDS011;4049;49.468;11.200;2023-08-24T19:59:30;6.65;;;4.80;;
8007;SDS011;4049;49.468;11.200;2023-08-24T20:01:57;7.53;;;5.30;;
8007;SDS011;4049;49.468;11.200;2023-08-24T20:04:24;6.78;;;4.25;;
8007;SDS011;4049;49.468;11.200;2023-08-24T20:06:52;7.35;;;4.47;;
8007;SDS011;4049;49.468;11.200;2023-08-24T20:09:21;6.50;;;4.35;;
8007;SDS011;4049;49.468;11.200;2023-08-24T20:11:48;4.88;;;4.10;;
8007;SDS011;4049;49.468;11.200;2023-08-24T20:14:15;5.60;;;3.90;;
8007;SDS011;4049;49.468;11.200;2023-08-24T20:16:42;6.88;;;4.20;;
8007;SDS011;4049;49.468;11.200;2023-08-24T20:19:08;6.22;;;4.28;;
8007;SDS011;4049;49.468;11.200;2023-08-24T20:21:36;5.63;;;3.58;;
8007;SDS011;4049;49.468;11.200;2023-08-24T20:24:03;7.97;;;4.32;;
8007;SDS011;4049;49.468;11.200;2023-08-24T20:26:32;5.80;;;3.85;;
8007;SDS011;4049;49.468;11.200;2023-08-24T20:29:00;8.32;;;3.92;;
8007;SDS011;4049;49.468;11.200;2023-08-24T20:31:27;8.38;;;4.20;;
8007;SDS011;4049;49.468;11.200;2023-08-24T20:33:54;5.90;;;4.28;;
8007;SDS011;4049;49.468;11.200;2023-08-24T20:36:21;7.95;;;4.63;;
8007;SDS011;4049;49.468;11.200;2023-08-24T20:38:48;5.68;;;4.13;;
8007;SDS011;4049;49.468;11.200;2023-08-24T20:41:15;6.78;;;4.60;;
8007;SDS011;4049;49.468;11.200;2023-08-24T20:43:44;5.25;;;3.95;;
8007;SDS011;4049;49.468;11.200;2023-08-24T20:46:11;6.90;;;4.53;;
8007;SDS011;4049;49.468;11.200;2023-08-24T20:48:38;5.63;;;3.85;;
8007;SDS011;4049;49.468;11.200;2023-08-24T20:51:05;7.60;;;4.43;;
8007;SDS011;4049;49.468;11.200;2023-08-24T20:53:32;5.07;;;3.90;;
8007;SDS011;4049;49.468;11.200;2023-08-24T20:55:59;9.45;;;4.57;;
8007;SDS011;4049;49.468;11.200;2023-08-24T20:58:26;7.50;;;4.57;;
8007;SDS011;4049;49.468;11.200;2023-08-24T21:00:54;5.95;;;3.92;;
8007;SDS011;4049;49.468;11.200;2023-08-24T21:03:21;6.45;;;4.35;;